createdAt,value
2023-03-17T00:00:43.355Z,5.72
2023-03-17T00:03:22.041Z,5.68
2023-03-17T00:05:49.036Z,5.80
2023-03-17T00:08:24.585Z,6.32
2023-03-17T00:10:51.551Z,5.97
2023-03-17T00:13:18.629Z,5.05
2023-03-17T00:15:54.809Z,5.03
2023-03-17T00:18:22.402Z,5.53
2023-03-17T00:20:49.355Z,5.60
2023-03-17T00:23:19.639Z,4.95
2023-03-17T00:25:46.718Z,5.25
2023-03-17T00:28:20.983Z,4.40
2023-03-17T00:30:49.724Z,5.35
2023-03-17T00:33:16.842Z,4.68
2023-03-17T00:35:46.350Z,4.80
2023-03-17T00:38:17.903Z,4.53
2023-03-17T00:43:12.540Z,4.68
2023-03-17T00:45:40.437Z,4.30
2023-03-17T00:48:15.294Z,4.38
2023-03-17T00:50:42.493Z,4.43
2023-03-17T00:53:15.415Z,4.05
2023-03-17T00:55:43.428Z,4.57
2023-03-17T00:58:25.268Z,4.32
2023-03-17T01:00:52.077Z,4.38
2023-03-17T01:03:19.607Z,4.32
2023-03-17T01:05:46.847Z,4.43
2023-03-17T01:08:13.456Z,4.90
2023-03-17T01:10:40.106Z,4.88
2023-03-17T01:13:06.898Z,5.55
2023-03-17T01:15:34.307Z,4.47
2023-03-17T01:18:02.564Z,4.97
2023-03-17T01:20:32.673Z,5.22
2023-03-17T01:23:00.436Z,5.45
2023-03-17T01:25:28.402Z,4.43
2023-03-17T01:27:57.639Z,4.72
2023-03-17T01:30:32.159Z,4.43
2023-03-17T01:32:59.893Z,4.68
2023-03-17T01:35:29.293Z,5.03
2023-03-17T01:37:57.106Z,4.78
2023-03-17T01:40:30.465Z,4.55
2023-03-17T01:43:16.033Z,4.90
2023-03-17T01:46:17.073Z,4.25
2023-03-17T01:48:54.637Z,4.85
2023-03-17T01:51:40.652Z,4.90
2023-03-17T01:54:11.567Z,4.30
2023-03-17T01:56:40.707Z,4.20
2023-03-17T01:59:11.399Z,4.35
2023-03-17T02:01:43.705Z,4.93
2023-03-17T02:04:11.727Z,4.10
2023-03-17T02:06:47.407Z,3.95
2023-03-17T02:09:21.786Z,4.95
2023-03-17T02:11:49.113Z,4.53
2023-03-17T02:14:15.670Z,4.30
2023-03-17T02:16:44.917Z,4.43
2023-03-17T02:19:11.651Z,5.18
2023-03-17T02:21:43.854Z,4.50
2023-03-17T02:24:20.548Z,4.65
2023-03-17T02:26:49.392Z,4.38
2023-03-17T02:29:16.675Z,4.75
2023-03-17T02:31:45.262Z,4.55
2023-03-17T02:34:11.888Z,4.30
2023-03-17T02:36:38.584Z,4.63
2023-03-17T02:39:05.212Z,4.13
2023-03-17T02:41:31.877Z,4.35
2023-03-17T02:43:58.542Z,4.95
2023-03-17T02:46:25.191Z,4.40
2023-03-17T02:48:51.860Z,4.75
2023-03-17T02:51:18.889Z,4.68
2023-03-17T02:53:45.524Z,4.70
2023-03-17T02:56:12.134Z,5.25
2023-03-17T02:58:38.682Z,5.20
2023-03-17T03:01:05.629Z,4.88
2023-03-17T03:03:32.864Z,4.88
2023-03-17T03:06:01.520Z,4.95
2023-03-17T03:08:29.796Z,5.22
2023-03-17T03:10:56.688Z,4.70
2023-03-17T03:13:23.571Z,4.80
2023-03-17T03:15:50.249Z,4.60
2023-03-17T03:18:16.882Z,5.38
2023-03-17T03:20:44.507Z,4.32
2023-03-17T03:23:11.677Z,4.65
2023-03-17T03:25:38.560Z,4.68
2023-03-17T03:28:08.032Z,4.90
2023-03-17T03:30:36.720Z,4.57
2023-03-17T03:33:04.385Z,4.90
2023-03-17T03:35:31.202Z,5.43
2023-03-17T03:37:58.190Z,4.55
2023-03-17T03:40:25.440Z,4.45
2023-03-17T03:42:52.455Z,3.88
2023-03-17T03:45:19.433Z,4.50
2023-03-17T03:47:46.055Z,4.15
2023-03-17T03:50:13.216Z,4.65
2023-03-17T03:52:40.108Z,4.60
2023-03-17T03:55:07.244Z,4.50
2023-03-17T03:57:33.888Z,5.47
2023-03-17T04:00:00.605Z,5.05
2023-03-17T04:02:27.520Z,5.43
2023-03-17T04:04:54.241Z,5.05
2023-03-17T04:07:21.305Z,4.95
2023-03-17T04:09:51.008Z,5.43
2023-03-17T04:12:18.080Z,4.90
2023-03-17T04:14:45.646Z,4.93
2023-03-17T04:17:12.975Z,5.25
2023-03-17T04:19:40.293Z,5.13
2023-03-17T04:22:08.961Z,4.85
2023-03-17T04:24:35.672Z,5.18
2023-03-17T04:27:05.503Z,5.30
2023-03-17T04:29:32.444Z,5.37
2023-03-17T04:31:59.060Z,5.35
2023-03-17T04:34:26.494Z,6.25
2023-03-17T04:36:53.115Z,5.35
2023-03-17T04:39:19.756Z,5.03
2023-03-17T04:41:46.432Z,5.20
2023-03-17T04:44:13.323Z,5.22
2023-03-17T04:46:40.024Z,5.35
2023-03-17T04:49:06.931Z,5.40
2023-03-17T04:51:33.657Z,5.20
2023-03-17T04:54:01.378Z,5.00
2023-03-17T04:56:29.044Z,5.68
2023-03-17T04:58:57.052Z,5.72
2023-03-17T05:01:23.893Z,5.35
2023-03-17T05:03:50.554Z,6.05
2023-03-17T05:06:17.515Z,4.88
2023-03-17T05:08:44.843Z,5.78
2023-03-17T05:11:12.858Z,5.50
2023-03-17T05:13:42.912Z,4.82
2023-03-17T05:16:10.311Z,5.93
2023-03-17T05:18:37.596Z,6.32
2023-03-17T05:21:06.191Z,5.35
2023-03-17T05:23:32.845Z,6.47
2023-03-17T05:25:59.976Z,5.25
2023-03-17T05:28:26.707Z,5.18
2023-03-17T05:30:54.163Z,5.50
2023-03-17T05:33:21.629Z,6.38
2023-03-17T05:35:48.546Z,5.95
2023-03-17T05:38:18.751Z,6.40
2023-03-17T05:40:45.631Z,5.30
2023-03-17T05:43:12.451Z,5.57
2023-03-17T05:45:39.166Z,5.65
2023-03-17T05:48:06.196Z,5.88
2023-03-17T05:50:33.310Z,5.97
2023-03-17T05:52:59.930Z,5.20
2023-03-17T05:55:26.635Z,5.90
2023-03-17T05:57:53.519Z,5.57
2023-03-17T06:00:21.382Z,5.18
2023-03-17T06:02:48.215Z,5.60
2023-03-17T06:05:15.050Z,5.63
2023-03-17T06:07:52.326Z,6.03
2023-03-17T06:10:21.822Z,5.40
2023-03-17T06:12:48.503Z,5.40
2023-03-17T06:15:16.455Z,5.07
2023-03-17T06:17:43.385Z,5.68
2023-03-17T06:20:11.521Z,5.03
2023-03-17T06:22:39.721Z,5.20
2023-03-17T06:25:10.605Z,5.35
2023-03-17T06:27:37.874Z,5.28
2023-03-17T06:30:06.950Z,5.38
2023-03-17T06:32:33.906Z,6.22
2023-03-17T06:35:01.238Z,6.07
2023-03-17T06:37:28.462Z,5.97
2023-03-17T06:39:55.488Z,5.40
2023-03-17T06:42:22.037Z,5.43
2023-03-17T06:44:52.417Z,6.00
2023-03-17T06:47:19.883Z,5.88
2023-03-17T06:49:46.450Z,6.13
2023-03-17T06:52:13.916Z,5.53
2023-03-17T06:54:41.224Z,6.28
2023-03-17T06:57:09.411Z,6.28
2023-03-17T06:59:36.294Z,6.47
2023-03-17T07:02:03.569Z,6.10
2023-03-17T07:04:31.171Z,6.93
2023-03-17T07:06:57.878Z,7.20
2023-03-17T07:09:24.438Z,6.88
2023-03-17T07:11:51.403Z,6.47
2023-03-17T07:14:18.559Z,6.70
2023-03-17T07:16:45.355Z,6.45
2023-03-17T07:19:12.046Z,6.25
2023-03-17T07:21:38.557Z,6.72
2023-03-17T07:24:05.334Z,6.57
2023-03-17T07:26:31.901Z,7.70
2023-03-17T07:29:00.825Z,6.90
2023-03-17T07:31:28.172Z,6.80
2023-03-17T07:33:57.383Z,6.85
2023-03-17T07:36:24.086Z,6.63
2023-03-17T07:38:50.915Z,6.47
2023-03-17T07:41:17.510Z,6.80
2023-03-17T07:43:44.223Z,7.75
2023-03-17T07:46:10.922Z,6.78
2023-03-17T07:48:40.683Z,6.35
2023-03-17T07:51:10.722Z,6.57
2023-03-17T07:53:37.244Z,6.95
2023-03-17T07:56:04.461Z,6.95
2023-03-17T07:58:31.106Z,6.72
2023-03-17T08:00:57.713Z,6.93
2023-03-17T08:03:24.298Z,6.13
2023-03-17T08:05:55.186Z,6.55
2023-03-17T08:10:49.492Z,6.95
2023-03-17T08:13:16.478Z,7.40
2023-03-17T08:15:43.414Z,6.75
2023-03-17T08:18:10.090Z,6.50
2023-03-17T08:20:37.715Z,6.20
2023-03-17T08:23:04.967Z,6.18
2023-03-17T08:25:31.922Z,5.95
2023-03-17T08:27:59.072Z,6.43
2023-03-17T08:30:25.905Z,5.78
2023-03-17T08:32:53.828Z,6.10
2023-03-17T08:35:20.740Z,7.13
2023-03-17T08:37:48.606Z,6.18
2023-03-17T08:40:18.290Z,7.03
2023-03-17T08:42:45.927Z,5.93
2023-03-17T08:45:13.777Z,5.82
2023-03-17T08:47:40.506Z,6.95
2023-03-17T08:50:11.218Z,7.13
2023-03-17T08:52:38.044Z,6.25
2023-03-17T08:55:05.002Z,6.40
2023-03-17T08:57:31.968Z,7.18
2023-03-17T08:59:58.902Z,7.07
2023-03-17T09:02:25.613Z,6.60
2023-03-17T09:04:52.702Z,6.95
2023-03-17T09:07:19.913Z,6.25
2023-03-17T09:09:46.532Z,6.95
2023-03-17T09:12:13.236Z,6.28
2023-03-17T09:14:44.143Z,5.65
2023-03-17T09:17:12.264Z,5.15
2023-03-17T09:19:38.868Z,5.15
2023-03-17T09:22:05.579Z,5.30
2023-03-17T09:24:32.133Z,4.95
2023-03-17T09:26:59.925Z,5.68
2023-03-17T09:29:27.154Z,5.30
2023-03-17T09:31:56.881Z,5.32
2023-03-17T09:34:25.488Z,5.80
2023-03-17T09:36:54.134Z,5.78
2023-03-17T09:39:22.923Z,5.40
2023-03-17T09:41:52.503Z,5.22
2023-03-17T09:44:42.271Z,5.15
2023-03-17T09:47:22.554Z,6.07
2023-03-17T09:49:58.388Z,6.05
2023-03-17T09:52:29.069Z,18.25
2023-03-17T09:57:31.180Z,6.63
2023-03-17T10:00:05.556Z,6.18
2023-03-17T10:02:35.244Z,6.43
2023-03-17T10:05:13.172Z,6.55
2023-03-17T10:07:50.140Z,6.88
2023-03-17T10:10:34.603Z,6.45
2023-03-17T10:13:43.026Z,6.68
2023-03-17T10:16:17.398Z,5.80
2023-03-17T10:18:53.002Z,6.35
2023-03-17T10:21:25.380Z,5.88
2023-03-17T10:23:53.080Z,6.47
2023-03-17T10:26:24.797Z,6.38
2023-03-17T10:28:52.790Z,5.85
2023-03-17T10:31:28.494Z,7.47
2023-03-17T10:33:58.322Z,6.03
2023-03-17T10:36:42.359Z,6.68
2023-03-17T10:39:12.758Z,6.07
2023-03-17T10:41:41.166Z,5.57
2023-03-17T10:44:22.700Z,6.47
2023-03-17T10:46:55.292Z,4.97
2023-03-17T10:49:24.346Z,4.80
2023-03-17T10:51:55.634Z,6.10
2023-03-17T10:54:25.160Z,6.13
2023-03-17T10:57:01.221Z,5.57
2023-03-17T11:02:17.874Z,5.68
2023-03-17T11:04:44.598Z,5.65
2023-03-17T11:07:20.279Z,6.60
2023-03-17T11:09:51.518Z,5.32
2023-03-17T11:12:21.118Z,3.90
2023-03-17T11:14:49.076Z,4.93
2023-03-17T11:17:36.136Z,4.53
2023-03-17T11:20:05.623Z,4.40
2023-03-17T11:22:40.125Z,4.05
2023-03-17T11:25:16.124Z,4.38
2023-03-17T11:28:16.874Z,3.90
2023-03-17T11:31:07.318Z,4.15
2023-03-17T11:33:48.107Z,3.90
2023-03-17T11:36:24.627Z,4.95
2023-03-17T11:39:13.512Z,4.18
2023-03-17T11:42:17.034Z,4.22
2023-03-17T11:45:05.512Z,4.40
2023-03-17T11:47:53.930Z,4.00
2023-03-17T11:50:27.880Z,3.90
2023-03-17T11:53:11.611Z,3.85
2023-03-17T11:55:58.539Z,3.63
2023-03-17T11:58:33.430Z,4.93
2023-03-17T12:01:02.921Z,4.38
2023-03-17T12:03:46.499Z,4.75
2023-03-17T12:06:17.858Z,4.07
2023-03-17T12:09:09.994Z,4.57
2023-03-17T12:11:41.410Z,4.22
2023-03-17T12:14:28.438Z,4.38
2023-03-17T12:17:21.618Z,3.85
2023-03-17T12:20:06.365Z,3.53
2023-03-17T12:22:46.176Z,4.18
2023-03-17T12:25:34.864Z,4.00
2023-03-17T12:28:30.104Z,5.80
2023-03-17T12:31:06.627Z,4.05
2023-03-17T12:33:48.572Z,4.55
2023-03-17T12:36:17.598Z,4.20
2023-03-17T12:38:51.405Z,4.55
2023-03-17T12:41:48.911Z,3.80
2023-03-17T12:44:18.507Z,3.35
2023-03-17T12:47:32.355Z,4.00
2023-03-17T12:50:16.798Z,4.32
2023-03-17T12:53:14.317Z,4.07
2023-03-17T12:55:45.198Z,4.00
2023-03-17T13:01:17.191Z,5.05
2023-03-17T13:04:05.795Z,4.50
2023-03-17T13:06:40.753Z,4.07
2023-03-17T13:09:27.116Z,4.03
2023-03-17T13:11:54.281Z,3.53
2023-03-17T13:14:40.998Z,4.18
2023-03-17T13:17:28.629Z,4.00
2023-03-17T13:19:57.669Z,3.92
2023-03-17T13:22:34.238Z,4.35
2023-03-17T13:25:12.896Z,3.88
2023-03-17T13:27:39.626Z,4.22
2023-03-17T13:30:41.523Z,3.53
2023-03-17T13:33:11.318Z,4.03
2023-03-17T13:36:05.852Z,5.55
2023-03-17T13:38:41.421Z,4.18
2023-03-17T13:41:41.958Z,4.18
2023-03-17T13:44:33.928Z,4.25
2023-03-17T13:47:31.687Z,3.78
2023-03-17T13:50:06.513Z,3.53
2023-03-17T13:52:55.214Z,3.45
2023-03-17T13:55:24.820Z,3.42
2023-03-17T13:58:14.778Z,2.90
2023-03-17T14:00:44.697Z,3.83
2023-03-17T14:03:32.404Z,2.83
2023-03-17T14:06:03.150Z,3.17
2023-03-17T14:08:41.881Z,2.88
2023-03-17T14:11:22.255Z,2.78
2023-03-17T14:14:07.884Z,2.30
2023-03-17T14:16:42.444Z,2.85
2023-03-17T14:19:21.015Z,2.17
2023-03-17T14:21:47.807Z,2.72
2023-03-17T14:24:44.213Z,2.53
2023-03-17T14:27:14.968Z,2.40
2023-03-17T14:29:41.802Z,3.25
2023-03-17T14:32:14.821Z,2.45
2023-03-17T14:35:12.371Z,2.63
2023-03-17T14:37:39.196Z,3.53
2023-03-17T14:40:20.306Z,5.00
2023-03-17T14:42:46.877Z,4.53
2023-03-17T14:45:21.640Z,2.00
2023-03-17T14:47:50.767Z,2.78
2023-03-17T14:50:25.909Z,2.70
2023-03-17T14:52:52.551Z,1.88
2023-03-17T14:55:20.071Z,1.90
2023-03-17T14:57:53.344Z,1.70
2023-03-17T15:00:44.786Z,1.85
2023-03-17T15:03:21.552Z,2.53
2023-03-17T15:05:49.622Z,2.08
2023-03-17T15:08:40.371Z,6.20
2023-03-17T15:11:07.960Z,4.43
2023-03-17T15:13:38.451Z,12.55
2023-03-17T15:16:24.837Z,5.70
2023-03-17T15:19:18.458Z,2.85
2023-03-17T15:21:45.412Z,2.70
2023-03-17T15:24:41.709Z,2.88
2023-03-17T15:27:17.436Z,7.22
2023-03-17T15:29:45.370Z,6.68
2023-03-17T15:32:21.017Z,3.25
2023-03-17T15:34:48.564Z,2.85
2023-03-17T15:37:24.056Z,2.80
2023-03-17T15:39:53.009Z,2.95
2023-03-17T15:42:22.127Z,3.17
2023-03-17T15:44:48.945Z,2.97
2023-03-17T15:47:17.795Z,3.33
2023-03-17T15:49:45.554Z,3.55
2023-03-17T15:52:26.499Z,4.25
2023-03-17T15:54:58.112Z,3.17
2023-03-17T15:57:26.182Z,2.63
2023-03-17T15:59:52.953Z,2.45
2023-03-17T16:02:37.186Z,2.50
2023-03-17T16:05:31.644Z,3.63
2023-03-17T16:07:58.371Z,3.55
2023-03-17T16:10:28.543Z,4.13
2023-03-17T16:12:55.865Z,4.40
2023-03-17T16:15:25.940Z,4.20
2023-03-17T16:17:55.372Z,5.07
2023-03-17T16:20:28.516Z,5.15
2023-03-17T16:22:58.498Z,6.15
2023-03-17T16:25:30.045Z,6.18
2023-03-17T16:27:59.029Z,6.20
2023-03-17T16:30:28.717Z,9.27
2023-03-17T16:33:02.437Z,6.60
2023-03-17T16:35:29.152Z,7.20
2023-03-17T16:37:56.134Z,16.00
2023-03-17T16:40:26.853Z,23.05
2023-03-17T16:42:54.135Z,10.25
2023-03-17T16:45:27.341Z,16.95
2023-03-17T16:47:55.370Z,10.65
2023-03-17T16:50:24.817Z,10.52
2023-03-17T16:52:51.398Z,13.55
2023-03-17T16:55:21.655Z,11.68
2023-03-17T16:57:51.014Z,15.68
2023-03-17T17:00:22.075Z,12.95
2023-03-17T17:02:49.826Z,11.02
2023-03-17T17:05:29.485Z,8.30
2023-03-17T17:07:57.471Z,8.05
2023-03-17T17:10:26.427Z,9.10
2023-03-17T17:12:53.567Z,7.15
2023-03-17T17:15:21.538Z,6.93
2023-03-17T17:17:51.716Z,8.65
2023-03-17T17:20:19.995Z,11.65
2023-03-17T17:22:46.617Z,10.63
2023-03-17T17:25:13.175Z,10.88
2023-03-17T17:27:41.736Z,8.45
2023-03-17T17:30:11.704Z,7.35
2023-03-17T17:32:38.614Z,6.57
2023-03-17T17:35:06.192Z,8.93
2023-03-17T17:37:33.129Z,8.30
2023-03-17T17:39:59.800Z,16.35
2023-03-17T17:42:26.725Z,6.88
2023-03-17T17:44:53.375Z,7.40
2023-03-17T17:47:20.359Z,6.30
2023-03-17T17:49:46.926Z,8.20
2023-03-17T17:52:13.505Z,9.88
2023-03-17T17:54:40.039Z,7.68
2023-03-17T17:57:06.941Z,7.45
2023-03-17T17:59:33.508Z,6.47
2023-03-17T18:02:01.003Z,6.43
2023-03-17T18:04:27.542Z,6.50
2023-03-17T18:06:54.093Z,6.45
2023-03-17T18:09:21.466Z,5.90
2023-03-17T18:11:48.467Z,5.55
2023-03-17T18:14:15.265Z,7.18
2023-03-17T18:16:42.066Z,6.20
2023-03-17T18:19:11.097Z,6.47
2023-03-17T18:21:37.618Z,6.95
2023-03-17T18:24:05.072Z,8.48
2023-03-17T18:26:32.886Z,30.02
2023-03-17T18:28:59.701Z,14.27
2023-03-17T18:31:31.498Z,17.80
2023-03-17T18:34:04.738Z,19.45
2023-03-17T18:36:31.600Z,18.45
2023-03-17T18:38:58.356Z,33.97
2023-03-17T18:41:26.652Z,12.68
2023-03-17T18:43:53.203Z,18.90
2023-03-17T18:46:19.758Z,11.88
2023-03-17T18:48:46.299Z,19.83
2023-03-17T18:51:12.815Z,13.10
2023-03-17T18:53:39.417Z,13.73
2023-03-17T18:56:06.450Z,11.70
2023-03-17T18:58:33.040Z,11.70
2023-03-17T19:01:01.673Z,9.77
2023-03-17T19:03:29.560Z,11.63
2023-03-17T19:05:56.292Z,10.85
2023-03-17T19:08:22.800Z,11.43
2023-03-17T19:10:49.477Z,10.77
2023-03-17T19:13:16.176Z,10.20
2023-03-17T19:15:42.730Z,14.23
2023-03-17T19:18:09.632Z,11.02
2023-03-17T19:20:36.476Z,12.50
2023-03-17T19:23:06.894Z,11.77
2023-03-17T19:25:34.052Z,10.80
2023-03-17T19:28:00.664Z,10.45
2023-03-17T19:30:27.423Z,11.82
2023-03-17T19:32:54.123Z,11.25
2023-03-17T19:35:20.867Z,10.07
2023-03-17T19:37:47.543Z,11.95
2023-03-17T19:40:14.177Z,12.73
2023-03-17T19:42:41.036Z,12.93
2023-03-17T19:45:08.294Z,12.93
2023-03-17T19:47:35.265Z,12.68
2023-03-17T19:50:01.830Z,14.07
2023-03-17T19:52:28.414Z,13.07
2023-03-17T19:54:54.943Z,11.90
2023-03-17T19:57:21.902Z,13.02
2023-03-17T19:59:48.492Z,11.98
2023-03-17T20:02:16.480Z,12.30
2023-03-17T20:04:43.307Z,11.90
2023-03-17T20:07:11.217Z,12.63
2023-03-17T20:09:39.079Z,12.40
2023-03-17T20:12:06.005Z,26.42
2023-03-17T20:14:32.645Z,58.65
2023-03-17T20:16:59.224Z,39.45
2023-03-17T20:19:26.093Z,20.75
2023-03-17T20:21:53.158Z,14.90
2023-03-17T20:24:19.946Z,13.45
2023-03-17T20:26:49.248Z,13.70
2023-03-17T20:29:16.130Z,14.18
2023-03-17T20:31:43.694Z,14.30
2023-03-17T20:34:10.607Z,22.27
2023-03-17T20:36:37.470Z,15.45
2023-03-17T20:39:04.689Z,13.85
2023-03-17T20:41:31.299Z,12.70
2023-03-17T20:43:57.837Z,11.63
2023-03-17T20:46:25.470Z,11.18
2023-03-17T20:48:58.361Z,10.63
2023-03-17T20:51:26.237Z,10.60
2023-03-17T20:53:54.868Z,11.02
2023-03-17T20:56:23.603Z,11.88
2023-03-17T20:58:52.968Z,13.07
2023-03-17T21:01:21.219Z,12.48
2023-03-17T21:03:48.532Z,10.85
2023-03-17T21:06:15.373Z,11.85
2023-03-17T21:08:42.404Z,12.30
2023-03-17T21:11:11.472Z,10.98
2023-03-17T21:13:38.603Z,16.90
2023-03-17T21:16:05.359Z,16.17
2023-03-17T21:18:32.029Z,12.93
2023-03-17T21:20:58.596Z,13.25
2023-03-17T21:23:25.278Z,13.73
2023-03-17T21:25:55.891Z,13.77
2023-03-17T21:28:22.844Z,12.20
2023-03-17T21:30:50.155Z,14.27
2023-03-17T21:33:16.771Z,12.15
2023-03-17T21:35:43.400Z,11.00
2023-03-17T21:38:10.129Z,20.88
2023-03-17T21:40:36.887Z,40.72
2023-03-17T21:43:03.626Z,30.13
2023-03-17T21:45:30.286Z,24.80
2023-03-17T21:47:56.924Z,32.00
2023-03-17T21:50:23.667Z,17.20
2023-03-17T21:52:50.287Z,11.50
2023-03-17T21:55:16.986Z,10.00
2023-03-17T21:57:47.187Z,14.27
2023-03-17T22:00:14.131Z,14.60
2023-03-17T22:02:41.639Z,12.25
2023-03-17T22:05:10.230Z,9.60
2023-03-17T22:07:40.868Z,10.48
2023-03-17T22:10:08.210Z,11.40
2023-03-17T22:12:36.149Z,10.05
2023-03-17T22:15:04.041Z,11.18
2023-03-17T22:17:32.452Z,9.93
2023-03-17T22:19:59.006Z,10.77
2023-03-17T22:22:25.641Z,11.43
2023-03-17T22:24:52.278Z,11.48
2023-03-17T22:27:18.940Z,10.88
2023-03-17T22:29:46.542Z,9.68
2023-03-17T22:32:13.286Z,10.55
2023-03-17T22:34:40.069Z,10.88
2023-03-17T22:37:07.549Z,10.27
2023-03-17T22:39:34.607Z,10.65
2023-03-17T22:42:01.983Z,10.40
2023-03-17T22:44:28.541Z,10.85
2023-03-17T22:46:55.245Z,10.82
2023-03-17T22:49:21.916Z,11.02
2023-03-17T22:51:50.028Z,12.23
2023-03-17T22:54:18.433Z,11.32
2023-03-17T22:56:45.207Z,11.20
2023-03-17T22:59:11.902Z,10.48
2023-03-17T23:01:39.311Z,11.15
2023-03-17T23:04:06.854Z,11.18
2023-03-17T23:06:35.182Z,11.35
2023-03-17T23:09:01.811Z,10.77
2023-03-17T23:11:28.470Z,10.43
2023-03-17T23:13:55.415Z,11.10
2023-03-17T23:16:22.246Z,11.45
2023-03-17T23:18:49.043Z,13.27
2023-03-17T23:21:22.978Z,11.82
2023-03-17T23:23:49.878Z,10.50
2023-03-17T23:26:16.814Z,11.50
2023-03-17T23:28:44.840Z,10.85
2023-03-17T23:31:11.606Z,10.10
2023-03-17T23:33:38.696Z,9.70
2023-03-17T23:36:06.579Z,9.80
2023-03-17T23:38:34.051Z,9.80
2023-03-17T23:41:00.605Z,10.57
2023-03-17T23:43:27.395Z,10.48
2023-03-17T23:45:54.066Z,9.52
2023-03-17T23:48:21.413Z,10.15
2023-03-17T23:50:52.220Z,10.50
2023-03-17T23:53:19.373Z,10.18
2023-03-17T23:55:46.667Z,10.75
2023-03-17T23:58:13.894Z,10.82
